createdAt,value
2019-05-19T00:00:05.179Z,15
2019-05-19T00:01:01.968Z,15
2019-05-19T00:02:02.334Z,15
2019-05-19T00:03:01.495Z,15
2019-05-19T00:04:01.602Z,10
2019-05-19T00:05:02.574Z,12
2019-05-19T00:06:01.646Z,12
2019-05-19T00:07:01.900Z,12
2019-05-19T00:08:02.303Z,12
2019-05-19T00:09:02.377Z,12
2019-05-19T00:10:01.757Z,13
2019-05-19T00:11:01.856Z,14
2019-05-19T00:12:02.072Z,14
2019-05-19T00:13:02.017Z,14
2019-05-19T00:14:02.283Z,14
2019-05-19T00:15:02.465Z,14
2019-05-19T00:16:02.295Z,10
2019-05-19T00:17:01.562Z,12
2019-05-19T00:18:01.751Z,12
2019-05-19T00:19:02.020Z,12
2019-05-19T00:20:02.217Z,12
2019-05-19T00:21:06.034Z,12
2019-05-19T00:22:01.720Z,11
2019-05-19T00:23:02.002Z,15
2019-05-19T00:24:02.200Z,15
2019-05-19T00:25:02.396Z,15
2019-05-19T00:26:01.678Z,15
2019-05-19T00:27:01.577Z,15
2019-05-19T00:28:01.875Z,11
2019-05-19T00:29:02.130Z,13
2019-05-19T00:30:02.350Z,13
2019-05-19T00:31:01.605Z,13
2019-05-19T00:32:01.843Z,13
2019-05-19T00:33:02.046Z,13
2019-05-19T00:34:02.344Z,11
2019-05-19T00:35:01.573Z,13
2019-05-19T00:36:01.682Z,13
2019-05-19T00:37:01.947Z,13
2019-05-19T00:38:02.177Z,13
2019-05-19T00:39:02.379Z,13
2019-05-19T00:40:01.627Z,13
2019-05-19T00:41:01.868Z,14
2019-05-19T00:42:02.177Z,14
2019-05-19T00:43:01.915Z,14
2019-05-19T00:44:02.199Z,14
2019-05-19T00:45:02.402Z,14
2019-05-19T00:46:01.589Z,14
2019-05-19T00:47:01.586Z,13
2019-05-19T00:48:01.718Z,13
2019-05-19T00:49:01.984Z,13
2019-05-19T00:50:02.320Z,13
2019-05-19T00:51:01.438Z,13
2019-05-19T00:52:01.451Z,10
2019-05-19T00:53:01.644Z,12
2019-05-19T00:54:01.819Z,12
2019-05-19T00:55:02.069Z,12
2019-05-19T00:56:02.264Z,12
2019-05-19T00:57:01.509Z,12
2019-05-19T00:58:01.787Z,11
2019-05-19T00:59:06.618Z,12
2019-05-19T01:00:04.467Z,12
2019-05-19T01:01:02.207Z,12
2019-05-19T01:02:01.516Z,12
2019-05-19T01:03:01.706Z,12
2019-05-19T01:04:01.854Z,14
2019-05-19T01:05:02.020Z,15
2019-05-19T01:06:01.980Z,15
2019-05-19T01:07:02.205Z,15
2019-05-19T01:08:01.447Z,15
2019-05-19T01:09:01.679Z,15
2019-05-19T01:10:02.335Z,10
2019-05-19T01:11:01.463Z,12
2019-05-19T01:12:01.692Z,12
2019-05-19T01:13:01.901Z,12
2019-05-19T01:14:02.167Z,12
2019-05-19T01:15:02.425Z,12
2019-05-19T01:16:02.239Z,13
2019-05-19T01:17:01.552Z,10
2019-05-19T01:18:01.671Z,10
2019-05-19T01:19:01.979Z,10
2019-05-19T01:20:02.248Z,10
2019-05-19T01:21:02.389Z,10
2019-05-19T01:22:01.629Z,10
2019-05-19T01:23:01.807Z,12
2019-05-19T01:24:02.138Z,12
2019-05-19T01:25:02.302Z,12
2019-05-19T01:26:01.504Z,12
2019-05-19T01:27:01.739Z,12
2019-05-19T01:28:01.953Z,11
2019-05-19T01:29:02.209Z,15
2019-05-19T01:30:02.355Z,15
2019-05-19T01:31:01.562Z,15
2019-05-19T01:32:01.784Z,15
2019-05-19T01:33:02.017Z,15
2019-05-19T01:34:01.790Z,13
2019-05-19T01:35:01.985Z,15
2019-05-19T01:36:02.167Z,15
2019-05-19T01:37:02.438Z,15
2019-05-19T01:38:01.545Z,15
2019-05-19T01:39:01.591Z,15
2019-05-19T01:40:01.851Z,13
2019-05-19T01:41:02.021Z,14
2019-05-19T01:42:02.328Z,14
2019-05-19T01:43:01.442Z,14
2019-05-19T01:44:01.664Z,14
2019-05-19T01:45:01.906Z,14
2019-05-19T01:46:02.193Z,13
2019-05-19T01:47:02.344Z,12
2019-05-19T01:48:01.664Z,12
2019-05-19T01:49:01.749Z,12
2019-05-19T01:50:16.962Z,12
2019-05-19T01:51:02.328Z,12
2019-05-19T01:52:01.549Z,10
2019-05-19T01:53:01.848Z,11
2019-05-19T01:54:01.929Z,11
2019-05-19T01:55:02.184Z,11
2019-05-19T01:56:02.449Z,11
2019-05-19T01:57:01.603Z,11
2019-05-19T01:58:01.553Z,10
2019-05-19T01:59:01.759Z,14
2019-05-19T02:00:03.566Z,14
2019-05-19T02:01:02.157Z,14
2019-05-19T02:02:02.400Z,14
2019-05-19T02:03:01.671Z,14
2019-05-19T02:04:01.857Z,7
2019-05-19T02:05:02.219Z,15
2019-05-19T02:06:02.360Z,15
2019-05-19T02:07:01.636Z,15
2019-05-19T02:08:01.877Z,15
2019-05-19T02:09:02.137Z,15
2019-05-19T02:10:02.642Z,13
2019-05-19T02:11:01.605Z,14
2019-05-19T02:12:01.828Z,14
2019-05-19T02:13:05.023Z,14
2019-05-19T02:14:02.324Z,14
2019-05-19T02:15:01.661Z,14
2019-05-19T02:16:01.830Z,13
2019-05-19T02:17:02.133Z,11
2019-05-19T02:18:02.331Z,11
2019-05-19T02:19:01.536Z,11
2019-05-19T02:20:01.903Z,11
2019-05-19T02:21:02.011Z,11
2019-05-19T02:22:02.310Z,11
2019-05-19T02:23:02.299Z,15
2019-05-19T02:24:01.513Z,15
2019-05-19T02:25:01.701Z,15
2019-05-19T02:26:01.930Z,15
2019-05-19T02:27:02.112Z,15
2019-05-19T02:28:02.475Z,13
2019-05-19T02:29:01.643Z,15
2019-05-19T02:30:02.666Z,15
2019-05-19T02:31:02.364Z,15
2019-05-19T02:32:01.536Z,15
2019-05-19T02:33:01.742Z,15
2019-05-19T02:34:01.932Z,13
2019-05-19T02:35:02.125Z,12
2019-05-19T02:36:02.348Z,12
2019-05-19T02:37:01.625Z,12
2019-05-19T02:38:01.734Z,12
2019-05-19T02:39:01.967Z,12
2019-05-19T02:40:02.405Z,11
2019-05-19T02:41:01.641Z,15
2019-05-19T02:42:01.799Z,15
2019-05-19T02:43:02.080Z,15
2019-05-19T02:44:02.281Z,15
2019-05-19T02:45:01.570Z,15
2019-05-19T02:46:01.902Z,14
2019-05-19T02:47:02.119Z,12
2019-05-19T02:48:02.277Z,12
2019-05-19T02:49:01.526Z,12
2019-05-19T02:50:01.882Z,12
2019-05-19T02:51:02.045Z,12
2019-05-19T02:52:02.180Z,11
2019-05-19T02:53:02.407Z,15
2019-05-19T02:54:01.667Z,15
2019-05-19T02:55:01.961Z,15
2019-05-19T02:56:01.463Z,15
2019-05-19T02:57:01.716Z,15
2019-05-19T02:58:01.865Z,13
2019-05-19T02:59:02.127Z,15
2019-05-19T03:00:02.371Z,15
2019-05-19T03:01:01.617Z,15
2019-05-19T03:02:01.777Z,15
2019-05-19T03:03:02.075Z,15
2019-05-19T03:04:02.168Z,11
2019-05-19T03:05:02.413Z,14
2019-05-19T03:06:01.685Z,14
2019-05-19T03:07:01.884Z,14
2019-05-19T03:08:01.916Z,14
2019-05-19T03:09:02.103Z,14
2019-05-19T03:10:02.175Z,10
2019-05-19T03:11:02.398Z,12
2019-05-19T03:12:01.529Z,12
2019-05-19T03:13:01.723Z,12
2019-05-19T03:14:01.914Z,12
2019-05-19T03:15:02.268Z,12
2019-05-19T03:16:02.384Z,13
2019-05-19T03:17:01.655Z,11
2019-05-19T03:18:01.917Z,11
2019-05-19T03:19:02.090Z,11
2019-05-19T03:20:02.465Z,11
2019-05-19T03:21:11.145Z,11
2019-05-19T03:22:01.754Z,11
2019-05-19T03:23:01.986Z,11
2019-05-19T03:24:02.220Z,11
2019-05-19T03:25:01.580Z,11
2019-05-19T03:26:01.763Z,11
2019-05-19T03:27:01.962Z,11
2019-05-19T03:28:02.270Z,11
2019-05-19T03:29:02.396Z,11
2019-05-19T03:30:01.895Z,11
2019-05-19T03:31:01.994Z,11
2019-05-19T03:32:02.326Z,11
2019-05-19T03:33:02.179Z,11
2019-05-19T03:34:01.426Z,13
2019-05-19T03:35:01.736Z,11
2019-05-19T03:36:01.881Z,11
2019-05-19T03:37:01.904Z,11
2019-05-19T03:38:02.119Z,11
2019-05-19T03:39:02.351Z,11
2019-05-19T03:40:01.729Z,11
2019-05-19T03:41:01.836Z,11
2019-05-19T03:42:01.664Z,11
2019-05-19T03:43:01.869Z,11
2019-05-19T03:44:02.023Z,11
2019-05-19T03:45:02.252Z,11
2019-05-19T03:46:01.492Z,10
2019-05-19T03:47:01.724Z,15
2019-05-19T03:48:01.887Z,15
2019-05-19T03:49:02.118Z,15
2019-05-19T03:50:02.398Z,15
2019-05-19T03:51:01.551Z,15
2019-05-19T03:52:01.786Z,9
2019-05-19T03:53:01.706Z,15
2019-05-19T03:54:02.078Z,15
2019-05-19T03:55:02.203Z,15
2019-05-19T03:56:02.362Z,15
2019-05-19T03:57:01.607Z,15
2019-05-19T03:58:01.816Z,10
2019-05-19T03:59:02.170Z,13
2019-05-19T04:00:04.271Z,13
2019-05-19T04:01:02.156Z,13
2019-05-19T04:02:02.272Z,13
2019-05-19T04:03:01.607Z,13
2019-05-19T04:04:01.767Z,9
2019-05-19T04:05:02.059Z,11
2019-05-19T04:06:02.225Z,11
2019-05-19T04:07:01.404Z,11
2019-05-19T04:08:01.609Z,11
2019-05-19T04:09:01.817Z,11
2019-05-19T04:10:02.077Z,11
2019-05-19T04:11:02.293Z,13
2019-05-19T04:12:01.479Z,13
2019-05-19T04:13:01.779Z,13
2019-05-19T04:14:01.881Z,13
2019-05-19T04:15:02.193Z,13
2019-05-19T04:16:02.343Z,9
2019-05-19T04:17:01.438Z,14
2019-05-19T04:18:01.718Z,14
2019-05-19T04:19:01.636Z,14
2019-05-19T04:20:01.952Z,14
2019-05-19T04:21:02.189Z,14
2019-05-19T04:22:02.294Z,9
2019-05-19T04:23:01.628Z,14
2019-05-19T04:24:01.769Z,14
2019-05-19T04:25:02.132Z,14
2019-05-19T04:26:02.274Z,14
2019-05-19T04:27:01.466Z,14
2019-05-19T04:28:01.727Z,9
2019-05-19T04:29:01.952Z,11
2019-05-19T04:30:02.191Z,11
2019-05-19T04:31:01.476Z,11
2019-05-19T04:32:01.689Z,11
2019-05-19T04:33:01.890Z,11
2019-05-19T04:34:02.144Z,10
2019-05-19T04:35:01.530Z,12
2019-05-19T04:36:01.761Z,12
2019-05-19T04:37:02.064Z,12
2019-05-19T04:38:02.255Z,12
2019-05-19T04:39:01.445Z,12
2019-05-19T04:40:01.712Z,10
2019-05-19T04:41:01.913Z,14
2019-05-19T04:42:02.195Z,14
2019-05-19T04:43:02.345Z,14
2019-05-19T04:44:01.519Z,14
2019-05-19T04:45:01.809Z,14
2019-05-19T04:46:02.061Z,11
2019-05-19T04:47:02.346Z,11
2019-05-19T04:48:01.604Z,11
2019-05-19T04:49:01.926Z,11
2019-05-19T04:50:02.204Z,11
2019-05-19T04:51:01.460Z,11
2019-05-19T04:52:06.434Z,10
2019-05-19T04:53:02.326Z,11
2019-05-19T04:54:01.643Z,11
2019-05-19T04:55:01.851Z,11
2019-05-19T04:56:02.033Z,11
2019-05-19T04:57:02.291Z,11
2019-05-19T04:58:01.462Z,9
2019-05-19T04:59:01.856Z,14
2019-05-19T05:00:05.118Z,14
2019-05-19T05:01:01.918Z,14
2019-05-19T05:02:02.121Z,14
2019-05-19T05:03:02.380Z,14
2019-05-19T05:04:01.657Z,9
2019-05-19T05:05:02.008Z,12
2019-05-19T05:06:02.192Z,12
2019-05-19T05:07:02.366Z,12
2019-05-19T05:08:01.665Z,12
2019-05-19T05:09:01.872Z,12
2019-05-19T05:10:02.197Z,10
2019-05-19T05:11:02.436Z,11
2019-05-19T05:12:01.612Z,11
2019-05-19T05:13:01.810Z,11
2019-05-19T05:14:01.991Z,11
2019-05-19T05:15:02.336Z,11
2019-05-19T05:16:02.116Z,9
2019-05-19T05:17:02.208Z,14
2019-05-19T05:18:01.507Z,14
2019-05-19T05:19:02.415Z,14
2019-05-19T05:20:01.573Z,14
2019-05-19T05:21:01.830Z,14
2019-05-19T05:22:02.051Z,6
2019-05-19T05:23:02.260Z,14
2019-05-19T05:24:01.479Z,14
2019-05-19T05:25:01.517Z,14
2019-05-19T05:26:01.698Z,14
2019-05-19T05:27:01.907Z,14
2019-05-19T05:28:02.086Z,9
2019-05-19T05:29:02.253Z,10
2019-05-19T05:30:02.492Z,10
2019-05-19T05:31:01.603Z,10
2019-05-19T05:32:05.387Z,10
2019-05-19T05:33:02.025Z,10
2019-05-19T05:34:02.199Z,11
2019-05-19T05:35:01.547Z,14
2019-05-19T05:36:01.761Z,14
2019-05-19T05:37:01.975Z,14
2019-05-19T05:38:02.134Z,14
2019-05-19T05:39:02.272Z,14
2019-05-19T05:40:01.592Z,10
2019-05-19T05:41:01.867Z,11
2019-05-19T05:42:02.087Z,11
2019-05-19T05:43:01.816Z,11
2019-05-19T05:44:01.935Z,11
2019-05-19T05:45:02.186Z,11
2019-05-19T05:46:01.553Z,10
2019-05-19T05:47:01.687Z,12
2019-05-19T05:48:01.924Z,12
2019-05-19T05:49:02.086Z,12
2019-05-19T05:50:02.316Z,12
2019-05-19T05:51:01.584Z,12
2019-05-19T05:52:01.778Z,10
2019-05-19T05:53:01.995Z,14
2019-05-19T05:54:02.158Z,14
2019-05-19T05:55:02.435Z,14
2019-05-19T05:56:02.463Z,14
2019-05-19T05:57:01.621Z,14
2019-05-19T05:58:01.807Z,9
2019-05-19T05:59:01.975Z,10
2019-05-19T06:00:03.835Z,10
2019-05-19T06:01:01.686Z,10
2019-05-19T06:02:01.879Z,10
2019-05-19T06:03:02.253Z,10
2019-05-19T06:04:02.360Z,13
2019-05-19T06:05:02.377Z,11
2019-05-19T06:06:01.591Z,11
2019-05-19T06:07:01.842Z,11
2019-05-19T06:08:02.138Z,11
2019-05-19T06:09:02.316Z,11
2019-05-19T06:10:01.583Z,10
2019-05-19T06:11:01.820Z,12
2019-05-19T06:12:02.090Z,12
2019-05-19T06:13:02.363Z,12
2019-05-19T06:14:01.454Z,12
2019-05-19T06:15:01.756Z,12
2019-05-19T06:16:01.998Z,11
2019-05-19T06:17:02.335Z,10
2019-05-19T06:18:01.578Z,10
2019-05-19T06:19:01.830Z,10
2019-05-19T06:20:02.997Z,10
2019-05-19T06:21:01.649Z,10
2019-05-19T06:22:01.846Z,11
2019-05-19T06:23:01.622Z,10
2019-05-19T06:24:01.864Z,10
2019-05-19T06:25:02.189Z,10
2019-05-19T06:26:02.397Z,10
2019-05-19T06:27:01.603Z,10
2019-05-19T06:28:01.835Z,11
2019-05-19T06:29:02.047Z,13
2019-05-19T06:30:02.287Z,13
2019-05-19T06:31:01.489Z,13
2019-05-19T06:32:01.712Z,13
2019-05-19T06:33:01.898Z,13
2019-05-19T06:34:02.176Z,11
2019-05-19T06:35:02.655Z,14
2019-05-19T06:36:02.324Z,14
2019-05-19T06:37:01.574Z,14
2019-05-19T06:38:01.773Z,14
2019-05-19T06:39:01.975Z,14
2019-05-19T06:40:02.223Z,6
2019-05-19T06:41:01.473Z,14
2019-05-19T06:42:01.700Z,14
2019-05-19T06:43:01.958Z,14
2019-05-19T06:44:03.466Z,14
2019-05-19T06:45:01.548Z,14
2019-05-19T06:46:02.408Z,13
2019-05-19T06:47:01.638Z,12
2019-05-19T06:48:01.790Z,12
2019-05-19T06:49:02.084Z,12
2019-05-19T06:50:02.372Z,12
2019-05-19T06:51:01.536Z,12
2019-05-19T06:52:01.697Z,10
2019-05-19T06:53:13.512Z,14
2019-05-19T06:54:02.206Z,14
2019-05-19T06:55:01.474Z,14
2019-05-19T06:56:01.680Z,14
2019-05-19T06:57:01.543Z,14
2019-05-19T06:58:01.789Z,13
2019-05-19T06:59:02.178Z,13
2019-05-19T07:00:04.543Z,13
2019-05-19T07:01:02.386Z,13
2019-05-19T07:02:01.585Z,13
2019-05-19T07:03:01.818Z,13
2019-05-19T07:04:02.131Z,9
2019-05-19T07:05:02.333Z,10
2019-05-19T07:06:01.486Z,10
2019-05-19T07:07:01.851Z,10
2019-05-19T07:08:01.916Z,10
2019-05-19T07:09:02.111Z,10
2019-05-19T07:10:02.162Z,10
2019-05-19T07:11:02.235Z,14
2019-05-19T07:12:01.428Z,14
2019-05-19T07:13:01.698Z,14
2019-05-19T07:14:03.025Z,14
2019-05-19T07:15:02.197Z,14
2019-05-19T07:16:02.318Z,10
2019-05-19T07:17:01.576Z,13
2019-05-19T07:18:01.671Z,13
2019-05-19T07:19:01.560Z,13
2019-05-19T07:20:01.818Z,13
2019-05-19T07:21:01.946Z,13
2019-05-19T07:22:02.203Z,9
2019-05-19T07:23:02.290Z,14
2019-05-19T07:24:01.562Z,14
2019-05-19T07:25:01.770Z,14
2019-05-19T07:26:01.964Z,14
2019-05-19T07:27:02.301Z,14
2019-05-19T07:28:01.406Z,11
2019-05-19T07:29:01.780Z,11
2019-05-19T07:30:02.152Z,11
2019-05-19T07:31:01.424Z,11
2019-05-19T07:32:01.609Z,11
2019-05-19T07:33:01.817Z,11
2019-05-19T07:34:02.081Z,9
2019-05-19T07:35:02.243Z,12
2019-05-19T07:36:01.401Z,12
2019-05-19T07:37:01.552Z,12
2019-05-19T07:38:01.730Z,12
2019-05-19T07:39:01.970Z,12
2019-05-19T07:40:02.350Z,13
2019-05-19T07:41:02.210Z,14
2019-05-19T07:42:02.355Z,14
2019-05-19T07:43:01.557Z,14
2019-05-19T07:44:01.719Z,14
2019-05-19T07:45:02.088Z,14
2019-05-19T07:46:02.250Z,10
2019-05-19T07:47:01.427Z,12
2019-05-19T07:48:01.667Z,12
2019-05-19T07:49:01.835Z,12
2019-05-19T07:50:02.050Z,12
2019-05-19T07:51:02.438Z,12
2019-05-19T07:52:01.413Z,11
2019-05-19T07:53:01.638Z,11
2019-05-19T07:54:01.890Z,11
2019-05-19T07:55:01.892Z,11
2019-05-19T07:56:02.080Z,11
2019-05-19T07:57:02.253Z,11
2019-05-19T07:58:01.462Z,11
2019-05-19T07:59:01.643Z,15
2019-05-19T08:00:04.162Z,15
2019-05-19T08:01:01.935Z,15
2019-05-19T08:02:02.095Z,15
2019-05-19T08:03:02.281Z,15
2019-05-19T08:04:01.567Z,9
2019-05-19T08:05:01.925Z,10
2019-05-19T08:06:02.291Z,10
2019-05-19T08:07:02.257Z,10
2019-05-19T08:08:01.466Z,10
2019-05-19T08:09:01.670Z,10
2019-05-19T08:10:02.058Z,7
2019-05-19T08:11:02.168Z,12
2019-05-19T08:12:01.945Z,12
2019-05-19T08:13:02.159Z,12
2019-05-19T08:14:02.232Z,12
2019-05-19T08:15:01.571Z,12
2019-05-19T08:16:01.661Z,10
2019-05-19T08:17:01.890Z,11
2019-05-19T08:18:01.669Z,11
2019-05-19T08:19:01.570Z,11
2019-05-19T08:20:01.757Z,11
2019-05-19T08:21:01.950Z,11
2019-05-19T08:22:02.254Z,11
2019-05-19T08:23:02.426Z,12
2019-05-19T08:24:01.700Z,12
2019-05-19T08:25:02.048Z,12
2019-05-19T08:26:02.195Z,12
2019-05-19T08:27:02.405Z,12
2019-05-19T08:28:08.549Z,13
2019-05-19T08:29:01.803Z,11
2019-05-19T08:30:02.069Z,11
2019-05-19T08:31:01.954Z,11
2019-05-19T08:32:02.096Z,11
2019-05-19T08:33:02.327Z,11
2019-05-19T08:34:01.509Z,10
2019-05-19T08:35:04.281Z,14
2019-05-19T08:36:01.829Z,14
2019-05-19T08:37:02.089Z,14
2019-05-19T08:38:01.742Z,14
2019-05-19T08:39:01.939Z,14
2019-05-19T08:40:02.170Z,7
2019-05-19T08:41:02.297Z,12
2019-05-19T08:42:01.473Z,12
2019-05-19T08:43:01.689Z,12
2019-05-19T08:44:01.971Z,12
2019-05-19T08:45:02.156Z,12
2019-05-19T08:46:02.414Z,14
2019-05-19T08:47:01.589Z,12
2019-05-19T08:48:01.827Z,12
2019-05-19T08:49:02.104Z,12
2019-05-19T08:50:02.383Z,12
2019-05-19T08:51:01.583Z,12
2019-05-19T08:52:02.380Z,14
2019-05-19T08:53:01.586Z,12
2019-05-19T08:54:13.880Z,12
2019-05-19T08:55:02.068Z,12
2019-05-19T08:56:02.257Z,12
2019-05-19T08:57:01.476Z,12
2019-05-19T08:58:01.752Z,13
2019-05-19T08:59:02.034Z,14
2019-05-19T09:00:05.074Z,14
2019-05-19T09:01:01.866Z,14
2019-05-19T09:02:02.104Z,14
2019-05-19T09:03:02.917Z,14
2019-05-19T09:04:01.556Z,14
2019-05-19T09:05:02.224Z,16
2019-05-19T09:06:02.405Z,16
2019-05-19T09:07:01.616Z,16
2019-05-19T09:08:01.822Z,16
2019-05-19T09:09:02.068Z,16
2019-05-19T09:10:02.335Z,10
2019-05-19T09:11:01.567Z,15
2019-05-19T09:12:01.725Z,15
2019-05-19T09:13:01.593Z,15
2019-05-19T09:14:01.693Z,15
2019-05-19T09:15:02.018Z,15
2019-05-19T09:16:02.094Z,7
2019-05-19T09:17:02.487Z,15
2019-05-19T09:18:01.699Z,15
2019-05-19T09:19:02.102Z,15
2019-05-19T09:20:02.804Z,15
2019-05-19T09:21:01.465Z,15
2019-05-19T09:22:01.740Z,15
2019-05-19T09:23:01.834Z,15
2019-05-19T09:24:02.037Z,15
2019-05-19T09:25:02.477Z,15
2019-05-19T09:26:01.591Z,15
2019-05-19T09:27:01.875Z,15
2019-05-19T09:28:02.046Z,11
2019-05-19T09:29:01.967Z,16
2019-05-19T09:30:02.243Z,16
2019-05-19T09:31:02.374Z,16
2019-05-19T09:32:01.780Z,16
2019-05-19T09:33:01.897Z,16
2019-05-19T09:34:02.096Z,11
2019-05-19T09:35:02.348Z,14
2019-05-19T09:36:01.451Z,14
2019-05-19T09:37:01.717Z,14
2019-05-19T09:38:01.854Z,14
2019-05-19T09:39:02.160Z,14
2019-05-19T09:40:02.390Z,12
2019-05-19T09:41:01.549Z,15
2019-05-19T09:42:01.796Z,15
2019-05-19T09:43:02.000Z,15
2019-05-19T09:44:02.162Z,15
2019-05-19T09:45:01.468Z,15
2019-05-19T09:46:01.742Z,14
2019-05-19T09:47:01.932Z,15
2019-05-19T09:48:02.102Z,15
2019-05-19T09:49:02.321Z,15
2019-05-19T09:50:02.334Z,15
2019-05-19T09:51:01.604Z,15
2019-05-19T09:52:01.850Z,10
2019-05-19T09:53:02.046Z,11
2019-05-19T09:54:02.213Z,11
2019-05-19T09:55:02.452Z,11
2019-05-19T09:56:01.677Z,11
2019-05-19T09:57:01.954Z,11
2019-05-19T09:58:01.971Z,13
2019-05-19T09:59:02.097Z,14
2019-05-19T10:00:04.000Z,14
2019-05-19T10:01:01.753Z,14
2019-05-19T10:02:01.949Z,14
2019-05-19T10:03:02.176Z,14
2019-05-19T10:04:02.368Z,15
2019-05-19T10:05:01.688Z,15
2019-05-19T10:06:01.921Z,15
2019-05-19T10:07:02.897Z,15
2019-05-19T10:08:02.268Z,15
2019-05-19T10:09:01.485Z,15
2019-05-19T10:10:01.859Z,15
2019-05-19T10:11:02.027Z,15
2019-05-19T10:12:02.128Z,15
2019-05-19T10:13:02.312Z,15
2019-05-19T10:14:01.590Z,15
2019-05-19T10:15:02.733Z,15
2019-05-19T10:16:02.075Z,9
2019-05-19T10:17:02.359Z,14
2019-05-19T10:18:01.597Z,14
2019-05-19T10:19:01.750Z,14
2019-05-19T10:20:02.204Z,14
2019-05-19T10:21:02.263Z,14
2019-05-19T10:22:01.582Z,12
2019-05-19T10:23:01.886Z,17
2019-05-19T10:24:02.184Z,17
2019-05-19T10:25:20.288Z,17
2019-05-19T10:26:01.599Z,17
2019-05-19T10:27:01.567Z,17
2019-05-19T10:28:01.834Z,11
2019-05-19T10:29:02.061Z,16
2019-05-19T10:30:02.372Z,16
2019-05-19T10:31:01.656Z,16
2019-05-19T10:32:01.860Z,16
2019-05-19T10:33:02.098Z,16
2019-05-19T10:34:02.350Z,14
2019-05-19T10:35:01.949Z,13
2019-05-19T10:36:01.835Z,13
2019-05-19T10:37:02.028Z,13
2019-05-19T10:38:02.276Z,13
2019-05-19T10:39:01.471Z,13
2019-05-19T10:40:01.760Z,14
2019-05-19T10:41:01.951Z,16
2019-05-19T10:42:02.659Z,16
2019-05-19T10:43:02.461Z,16
2019-05-19T10:44:01.580Z,16
2019-05-19T10:45:01.786Z,16
2019-05-19T10:46:01.668Z,14
2019-05-19T10:47:01.823Z,15
2019-05-19T10:48:01.927Z,15
2019-05-19T10:49:02.141Z,15
2019-05-19T10:50:02.419Z,15
2019-05-19T10:51:01.652Z,15
2019-05-19T10:52:01.692Z,15
2019-05-19T10:53:02.456Z,13
2019-05-19T10:54:01.795Z,13
2019-05-19T10:55:02.164Z,13
2019-05-19T10:56:02.305Z,13
2019-05-19T10:57:01.629Z,13
2019-05-19T10:58:01.816Z,11
2019-05-19T10:59:02.073Z,16
2019-05-19T11:00:04.376Z,16
2019-05-19T11:01:02.210Z,16
2019-05-19T11:02:01.489Z,16
2019-05-19T11:03:01.803Z,16
2019-05-19T11:04:01.982Z,12
2019-05-19T11:05:02.273Z,16
2019-05-19T11:06:01.617Z,16
2019-05-19T11:07:01.786Z,16
2019-05-19T11:08:02.075Z,16
2019-05-19T11:09:02.192Z,16
2019-05-19T11:10:02.463Z,17
2019-05-19T11:11:01.669Z,17
2019-05-19T11:12:01.824Z,17
2019-05-19T11:13:02.123Z,17
2019-05-19T11:14:02.257Z,17
2019-05-19T11:15:01.569Z,17
2019-05-19T11:16:01.687Z,13
2019-05-19T11:17:02.013Z,16
2019-05-19T11:18:02.135Z,16
2019-05-19T11:19:02.409Z,16
2019-05-19T11:20:02.084Z,16
2019-05-19T11:21:01.863Z,16
2019-05-19T11:22:01.729Z,15
2019-05-19T11:23:01.864Z,18
2019-05-19T11:24:01.841Z,18
2019-05-19T11:25:02.161Z,18
2019-05-19T11:26:02.305Z,18
2019-05-19T11:27:01.575Z,18
2019-05-19T11:28:01.771Z,16
2019-05-19T11:29:02.046Z,17
2019-05-19T11:30:02.220Z,17
2019-05-19T11:31:01.437Z,17
2019-05-19T11:32:01.800Z,17
2019-05-19T11:33:01.938Z,17
2019-05-19T11:34:02.215Z,14
2019-05-19T11:35:02.447Z,16
2019-05-19T11:36:01.689Z,16
2019-05-19T11:37:01.889Z,16
2019-05-19T11:38:02.094Z,16
2019-05-19T11:39:02.343Z,16
2019-05-19T11:40:01.478Z,16
2019-05-19T11:41:01.773Z,14
2019-05-19T11:42:01.438Z,14
2019-05-19T11:43:01.778Z,14
2019-05-19T11:44:01.878Z,14
2019-05-19T11:45:02.171Z,14
2019-05-19T11:46:02.370Z,15
2019-05-19T11:47:01.607Z,17
2019-05-19T11:48:01.866Z,17
2019-05-19T11:49:02.120Z,17
2019-05-19T11:50:02.381Z,17
2019-05-19T11:51:01.641Z,17
2019-05-19T11:52:01.849Z,15
2019-05-19T11:53:02.094Z,18
2019-05-19T11:54:02.394Z,18
2019-05-19T11:55:01.744Z,18
2019-05-19T11:56:06.717Z,18
2019-05-19T11:57:02.206Z,18
2019-05-19T11:58:02.336Z,20
2019-05-19T11:59:01.462Z,17
2019-05-19T12:00:06.264Z,17
2019-05-19T12:01:02.065Z,17
2019-05-19T12:02:02.211Z,17
2019-05-19T12:03:02.350Z,17
2019-05-19T12:04:01.603Z,15
2019-05-19T12:05:02.079Z,19
2019-05-19T12:06:02.196Z,19
2019-05-19T12:07:01.465Z,19
2019-05-19T12:08:01.677Z,19
2019-05-19T12:09:01.949Z,19
2019-05-19T12:10:02.243Z,16
2019-05-19T12:11:01.532Z,15
2019-05-19T12:12:01.768Z,15
2019-05-19T12:13:01.924Z,15
2019-05-19T12:14:02.157Z,15
2019-05-19T12:15:02.451Z,15
2019-05-19T12:16:01.694Z,15
2019-05-19T12:17:01.983Z,18
2019-05-19T12:18:02.020Z,18
2019-05-19T12:19:02.380Z,18
2019-05-19T12:20:01.592Z,18
2019-05-19T12:21:01.780Z,18
2019-05-19T12:22:01.975Z,15
2019-05-19T12:23:02.195Z,17
2019-05-19T12:24:01.394Z,17
2019-05-19T12:25:01.767Z,17
2019-05-19T12:26:01.977Z,17
2019-05-19T12:27:02.127Z,17
2019-05-19T12:28:02.395Z,14
2019-05-19T12:29:01.523Z,17
2019-05-19T12:30:01.850Z,17
2019-05-19T12:31:01.994Z,17
2019-05-19T12:32:02.142Z,17
2019-05-19T12:33:02.067Z,17
2019-05-19T12:34:02.067Z,11
2019-05-19T12:35:02.418Z,17
2019-05-19T12:36:01.590Z,17
2019-05-19T12:37:01.829Z,17
2019-05-19T12:38:02.078Z,17
2019-05-19T12:39:02.392Z,17
2019-05-19T12:40:01.614Z,15
2019-05-19T12:41:01.780Z,14
2019-05-19T12:42:02.023Z,14
2019-05-19T12:43:02.288Z,14
2019-05-19T12:44:01.439Z,14
2019-05-19T12:45:01.685Z,14
2019-05-19T12:46:01.960Z,15
2019-05-19T12:47:02.194Z,16
2019-05-19T12:48:02.223Z,16
2019-05-19T12:49:01.506Z,16
2019-05-19T12:50:02.013Z,16
2019-05-19T12:51:01.979Z,16
2019-05-19T12:52:02.286Z,19
2019-05-19T12:53:02.436Z,16
2019-05-19T12:54:01.739Z,16
2019-05-19T12:55:01.853Z,16
2019-05-19T12:56:02.069Z,16
2019-05-19T12:57:02.268Z,16
2019-05-19T12:58:01.526Z,15
2019-05-19T12:59:01.780Z,17
2019-05-19T13:00:06.103Z,17
2019-05-19T13:01:01.958Z,17
2019-05-19T13:02:02.148Z,17
2019-05-19T13:03:02.471Z,17
2019-05-19T13:04:01.592Z,12
2019-05-19T13:05:05.572Z,20
2019-05-19T13:06:01.985Z,20
2019-05-19T13:07:02.210Z,20
2019-05-19T13:08:01.569Z,20
2019-05-19T13:09:01.713Z,20
2019-05-19T13:10:02.055Z,12
2019-05-19T13:11:02.176Z,16
2019-05-19T13:12:01.448Z,16
2019-05-19T13:13:01.805Z,16
2019-05-19T13:14:01.911Z,16
2019-05-19T13:15:02.182Z,16
2019-05-19T13:16:02.433Z,14
2019-05-19T13:17:01.630Z,13
2019-05-19T13:18:01.889Z,13
2019-05-19T13:19:02.180Z,13
2019-05-19T13:20:02.625Z,13
2019-05-19T13:21:01.650Z,13
2019-05-19T13:22:01.840Z,16
2019-05-19T13:23:02.085Z,17
2019-05-19T13:24:02.370Z,17
2019-05-19T13:25:01.552Z,17
2019-05-19T13:26:01.704Z,17
2019-05-19T13:27:01.871Z,17
2019-05-19T13:28:02.061Z,15
2019-05-19T13:29:01.474Z,21
2019-05-19T13:30:01.659Z,21
2019-05-19T13:31:01.915Z,21
2019-05-19T13:32:02.109Z,21
2019-05-19T13:33:02.334Z,21
2019-05-19T13:34:01.483Z,17
2019-05-19T13:35:01.754Z,20
2019-05-19T13:36:02.038Z,20
2019-05-19T13:37:02.185Z,20
2019-05-19T13:38:02.354Z,20
2019-05-19T13:39:01.534Z,20
2019-05-19T13:40:02.144Z,12
2019-05-19T13:41:02.066Z,18
2019-05-19T13:42:02.342Z,18
2019-05-19T13:43:01.603Z,18
2019-05-19T13:44:01.798Z,18
2019-05-19T13:45:01.981Z,18
2019-05-19T13:46:02.196Z,16
2019-05-19T13:47:01.485Z,19
2019-05-19T13:48:01.715Z,19
2019-05-19T13:49:02.020Z,19
2019-05-19T13:50:02.228Z,19
2019-05-19T13:51:01.570Z,19
2019-05-19T13:52:01.764Z,15
2019-05-19T13:53:02.019Z,15
2019-05-19T13:54:02.283Z,15
2019-05-19T13:55:01.626Z,15
2019-05-19T13:56:01.796Z,15
2019-05-19T13:57:12.001Z,15
2019-05-19T13:58:03.668Z,15
2019-05-19T13:59:01.516Z,19
2019-05-19T14:00:04.419Z,19
2019-05-19T14:01:02.216Z,19
2019-05-19T14:02:01.533Z,19
2019-05-19T14:03:01.737Z,19
2019-05-19T14:04:01.921Z,14
2019-05-19T14:05:02.282Z,17
2019-05-19T14:06:02.376Z,17
2019-05-19T14:07:01.565Z,17
2019-05-19T14:08:01.808Z,17
2019-05-19T14:09:02.256Z,17
2019-05-19T14:10:02.387Z,14
2019-05-19T14:11:01.633Z,18
2019-05-19T14:12:01.769Z,18
2019-05-19T14:13:01.953Z,18
2019-05-19T14:14:02.176Z,18
2019-05-19T14:15:04.293Z,18
2019-05-19T14:16:01.607Z,15